KLIT/LIT METAR and TAF weather

Enter ICAO airport designator
Station Type Date Time Source
KLIT METAR 2022/01/29 12:53 UTC NOAA

KLIT 291253Z 00000KT 10SM CLR M04/M12 A3040 RMK AO2 SLP300 T10441122


Station Type Date Time Source
KLIT Decoded METAR 2022/01/29 12:53 UTC NOAA

LITTLE ROCK ADAMS FIELD, AR, United States (KLIT) 34-44N 92-14W 79M
Jan 29, 2022 - 07:53 AM EST / 2022.01.29 1253 UTC
Wind: Calm:0
Visibility: 10 mile(s):0
Sky conditions: clear
Temperature: 24.1 F (-4.4 C)
Dew Point: 10.0 F (-12.2 C)
Relative Humidity: 54%
Pressure (altimeter): 30.4 in. Hg (1029 hPa)
ob: KLIT 291253Z 00000KT 10SM CLR M04/M12 A3040 RMK AO2 SLP300 T10441122
cycle: 13

Station Type Date Time Source
KLIT TAF 2022/01/29 12:22 UTC NOAA

TAF KLIT 291120Z 2912/3012 VRB06KT P6SM FEW250
FM291800 22010G17KT P6SM SKC
FM300200 20007KT P6SM SKC WS020/24035KT

Example: see airport list